Airfield :







YOU CAN JOIN US ON...

 
LOGIN :

Register | Disclaimer

   EN    FR    IT 

 









Legend :    VFR   Marginal VFR   IFR   Intensive IFR   Very Intensive IFR
Visi :
Ceiling :
>= 8 km
>= 3000ft
5 to 8 km
1000 to 3000 ft
1500m to 5 km
500 to 1000 ft
800 to 1500m
200 to 500 ft
< 800m
< 200 ft
Symbols :   Thunderstorms  Fog  Heavy snow  Heavy precipitations  Wind > 20 kt






- Airport Elevation : 215 ft
- IATA code : MSS


KMSS - Massena International Richards Field

CURRENT METAR :
  • 151253Z AUTO 27016G28KT 10SM BKN022 OVC033 02/M02 A2948 RMK AO2 PK WND 27028/1246 SLP988 T00171022

EXPIRED METARs :
  • 151153Z AUTO 25011G20KT 10SM OVC018 02/M01 A2943 RMK AO2 UPB16E31 SLP970 P0000 60001 70046 T00221011 10022 20011 51051
  • 151053Z AUTO 25015G25KT 10SM BKN019 OVC023 02/M01 A2939 RMK AO2 PK WND 25027/1019 PRESRR SLP955 T00221011

TAF KMSS
Valid from the 15 at 12:00 until the 16 at 12:00 UTC


151133Z 1512/1612 26020G31KT P6SM VCSH OVC020
FM151500 26015G25KT P6SM VCSH OVC028
FM152000 27012G24KT P6SM BKN035
FM160100 26010KT P6SM FEW250



MET'MAP, your aeronautical weather chart ! - Copyright ORBIFLY December 2007 - Disclaimer

ORBIFLY MET'MAP TEAM :

Programming & Development : Alexandra Zaïnal
Concept & original design : Baudouin d'Aumeries
Assistance for programming : Marc-Olivier Méhu
Technical & hardware support : Manuel Goepfert

Contact : metmap@orbifly.com




SOURCES & CREDITS :

   NOAA